Camp Strake, Texas
Current Conditions -  °F | °C
As of 9:53 AM on Monday 26 Jan 2015 (Local Time) from KCXO Reporting Station
Clear Clear  
Wind Chill: 55°   Ceiling: Unl
Heat Index: 55°   Visibility: 10mi
Dew Point: 32°   Wind: 5mph
Humidity: 42%   Direction: 330°NNW
Pressure: 30.27"   Gusts: NA
Location:  30.3059°N, 95.4359°W
Report Text: KCXO 261553Z 33004KT 10SM CLR 13/00 A3027 RMK AO2 SLP248 T01280000
Loading
Personal Weather Stations






























Interactive Weather Map New forecast layout! Learn more

10-Day Weather Forecast

Advertisements
Track Severe Weather on mobile